CheckWX is a tool to help pilots better visualize weather data.  It is not intended as a substitute for an official pre-flight weather briefing.

05:21:34 UTC

KIAH METAR
George Bush Intercontinental / Houston Airport
Houston, Texas, USA
Current

29 mins ago

KIAH 200453Z 36005KT 1/2SM BR OVC003 09/09 A2983 RMK AO2 SFC VIS 4 SLP103 T00890089
Observed
Feb-20 @ 04:53 UTC
Wind
  • 360° at 5 KTS
Visibility
805 meters
Flight Rules
LIFR
Conditions
Mist
Cloud Levels
  • Overcast at 300' AGL
Temperature
C / 48°F
Dewpoint
C / 48°F
Humidity
100%
Altimeter
29.83" Hg
Pressure
1010.3 hPa
Previous

1 hour ago

KIAH 200353Z 01009KT 1/2SM BR OVC004 09/09 A2983 RMK AO2 SFC VIS 6 SLP102 T00890089
Observed
Feb-20 @ 03:53 UTC
Wind
  • 010° at 9 KTS
Visibility
805 meters
Flight Rules
LIFR
Conditions
Mist
Cloud Levels
  • Overcast at 400' AGL
Temperature
C / 48°F
Dewpoint
C / 48°F
Humidity
100%
Altimeter
29.83" Hg
Pressure
1010.2 hPa
Previous

2 hours ago

KIAH 200321Z 35007KT 1SM BR OVC004 09/09 A2983 RMK AO2 SFC VIS 6 T00890089
Observed
Feb-20 @ 03:21 UTC
Wind
  • 350° at 7 KTS
Visibility
1,609 meters
Flight Rules
LIFR
Conditions
Mist
Cloud Levels
  • Overcast at 400' AGL
Temperature
C / 48°F
Dewpoint
C / 48°F
Humidity
100%
Altimeter
29.83" Hg
Pressure
1010.12 hPa